Time;durP1;ratioP1;P1;durP2;ratioP2;P2;SDS_P1;SDS_P2;PMS_P1;PMS_P2;Temp;Humidity;BMP_temperature;BMP_pressure;BME280_temperature;BME280_humidity;BME280_pressure;Samples;Min_cycle;Max_cycle;Signal;HPM_P1;HPM_P2
2022/08/07 00:01:44;;;;;;;2.03;0.98;;;;;;;;;;4948197;28;20062;-61
2022/08/07 00:04:10;;;;;;;1.60;0.95;;;;;;;;;;4982856;28;20062;-61
2022/08/07 00:06:37;;;;;;;2.05;0.98;;;;;;;;;;4969953;28;20052;-61
2022/08/07 00:09:04;;;;;;;2.42;0.90;;;;;;;;;;4964046;28;20050;-61
2022/08/07 00:11:31;;;;;;;2.35;1.10;;;;;;;;;;4987702;28;20122;-60
2022/08/07 00:13:59;;;;;;;1.90;1.00;;;;;;;;;;4968720;28;20048;-60
2022/08/07 00:16:25;;;;;;;2.05;1.00;;;;;;;;;;4970953;28;20061;-61
2022/08/07 00:18:53;;;;;;;1.48;0.85;;;;;;;;;;4965011;28;20051;-61
2022/08/07 00:21:20;;;;;;;2.38;0.80;;;;;;;;;;4970936;28;20054;-60
2022/08/07 00:23:49;;;;;;;2.38;1.15;;;;;;;;;;4965495;28;20057;-60
2022/08/07 00:26:15;;;;;;;;;;;;;;;;;;4972178;28;20141;-61
2022/08/07 00:28:43;;;;;;;1.40;0.85;;;;;;;;;;4970724;28;19922;-62
2022/08/07 00:31:10;;;;;;;1.45;0.90;;;;;;;;;;4965514;28;20213;-61
2022/08/07 00:33:37;;;;;;;2.25;1.00;;;;;;;;;;4965867;28;20350;-62
2022/08/07 00:36:06;;;;;;;2.17;0.90;;;;;;;;;;4960366;28;20050;-62
2022/08/07 00:38:35;;;;;;;1.73;1.00;;;;;;;;;;4987759;28;20056;-61
2022/08/07 00:41:02;;;;;;;1.55;0.90;;;;;;;;;;4964836;28;20054;-61
2022/08/07 00:43:29;;;;;;;2.10;0.90;;;;;;;;;;4971269;28;20053;-61
2022/08/07 00:45:55;;;;;;;1.33;0.80;;;;;;;;;;4965668;28;20054;-62
2022/08/07 00:48:22;;;;;;;1.65;0.90;;;;;;;;;;4969841;28;20050;-61
2022/08/07 00:50:48;;;;;;;1.55;0.95;;;;;;;;;;4970183;28;20052;-61
2022/08/07 00:53:19;;;;;;;4.55;0.88;;;;;;;;;;4966440;28;20046;-61
2022/08/07 00:55:45;;;;;;;1.58;0.85;;;;;;;;;;4971467;28;20109;-61
2022/08/07 00:58:12;;;;;;;1.88;1.00;;;;;;;;;;4966132;28;20050;-61
2022/08/07 01:00:38;;;;;;;2.08;1.10;;;;;;;;;;4970758;28;20115;-62
2022/08/07 01:03:05;;;;;;;2.17;0.80;;;;;;;;;;4964182;28;20069;-61
2022/08/07 01:05:32;;;;;;;2.53;0.90;;;;;;;;;;4987741;28;20050;-61
2022/08/07 01:07:58;;;;;;;1.52;0.90;;;;;;;;;;4971608;28;20082;-62
2022/08/07 01:10:26;;;;;;;4.63;0.90;;;;;;;;;;4980749;28;20062;-61
2022/08/07 01:12:53;;;;;;;1.30;0.90;;;;;;;;;;4971372;28;20054;-61
2022/08/07 01:15:20;;;;;;;2.85;0.90;;;;;;;;;;4965464;28;20054;-61
2022/08/07 01:17:47;;;;;;;1.25;0.90;;;;;;;;;;4972716;28;20108;-61
2022/08/07 01:20:15;;;;;;;1.92;1.10;;;;;;;;;;4965647;28;20066;-61
2022/08/07 01:22:43;;;;;;;2.03;1.23;;;;;;;;;;4955152;28;20119;-61
2022/08/07 01:25:11;;;;;;;1.40;0.80;;;;;;;;;;4953640;28;20069;-61
2022/08/07 01:27:37;;;;;;;2.63;1.10;;;;;;;;;;4974075;28;20087;-62
2022/08/07 01:30:05;;;;;;;2.03;1.00;;;;;;;;;;4990449;28;20309;-61
2022/08/07 01:32:32;;;;;;;1.43;1.03;;;;;;;;;;4951963;28;20069;-61
2022/08/07 01:34:59;;;;;;;1.80;0.95;;;;;;;;;;4954378;28;20310;-62
2022/08/07 01:37:26;;;;;;;1.63;0.90;;;;;;;;;;4966104;28;20066;-61
2022/08/07 01:39:57;;;;;;;2.92;0.95;;;;;;;;;;4974542;28;20069;-62
2022/08/07 01:42:25;;;;;;;2.72;1.05;;;;;;;;;;4968314;28;20058;-60
2022/08/07 01:44:52;;;;;;;2.15;1.00;;;;;;;;;;4973579;28;20054;-62
2022/08/07 01:47:19;;;;;;;1.85;1.00;;;;;;;;;;4956890;28;20118;-61
2022/08/07 01:49:45;;;;;;;2.15;0.93;;;;;;;;;;4945953;28;20058;-62
2022/08/07 01:52:12;;;;;;;1.35;1.00;;;;;;;;;;4950346;28;20058;-62
2022/08/07 01:54:40;;;;;;;2.55;1.08;;;;;;;;;;4970964;28;20141;-61
2022/08/07 01:57:10;;;;;;;1.98;1.02;;;;;;;;;;4956504;28;20057;-61
2022/08/07 01:59:42;;;;;;;1.77;1.05;;;;;;;;;;4973674;28;20504;-62
2022/08/07 02:02:11;;;;;;;1.92;1.02;;;;;;;;;;4960159;28;20054;-62
2022/08/07 02:04:41;;;;;;;3.25;1.10;;;;;;;;;;4970834;28;20085;-62
2022/08/07 02:07:09;;;;;;;4.05;1.48;;;;;;;;;;4949321;28;20042;-61
2022/08/07 02:09:36;;;;;;;2.10;1.10;;;;;;;;;;4971461;28;20054;-62
2022/08/07 02:12:15;;;;;;;2.35;1.30;;;;;;;;;;4967057;28;20117;-62
2022/08/07 02:14:48;;;;;;;3.10;1.20;;;;;;;;;;4955443;28;20118;-61
2022/08/07 02:17:15;;;;;;;2.58;1.10;;;;;;;;;;4948141;28;20114;-61
2022/08/07 02:19:44;;;;;;;2.58;1.30;;;;;;;;;;4955803;28;20054;-62
2022/08/07 02:22:13;;;;;;;2.05;1.15;;;;;;;;;;4953487;28;20055;-62
2022/08/07 02:24:39;;;;;;;;;;;;;;;;;;4968895;28;20054;-61
2022/08/07 02:27:07;;;;;;;2.38;1.20;;;;;;;;;;4954692;28;19930;-61
2022/08/07 02:29:34;;;;;;;2.78;1.17;;;;;;;;;;4946525;28;20061;-61
2022/08/07 02:32:04;;;;;;;1.93;1.10;;;;;;;;;;4954035;28;20054;-61
2022/08/07 02:34:32;;;;;;;2.83;1.33;;;;;;;;;;4947964;28;20341;-61
2022/08/07 02:37:00;;;;;;;2.70;1.20;;;;;;;;;;4953336;28;20043;-61
2022/08/07 02:39:28;;;;;;;3.85;1.30;;;;;;;;;;4948178;28;20058;-62
2022/08/07 02:41:56;;;;;;;3.35;1.45;;;;;;;;;;4952215;28;20051;-62
2022/08/07 02:44:26;;;;;;;3.58;1.20;;;;;;;;;;4937571;28;20051;-61
2022/08/07 02:46:53;;;;;;;2.75;1.27;;;;;;;;;;4937861;28;20070;-62
2022/08/07 02:49:21;;;;;;;2.55;1.20;;;;;;;;;;4940687;28;20090;-61
2022/08/07 02:51:58;;;;;;;2.38;1.25;;;;;;;;;;4934852;29;20075;-60
2022/08/07 02:54:27;;;;;;;1.77;1.13;;;;;;;;;;4948796;28;20054;-61
2022/08/07 02:56:56;;;;;;;2.20;1.15;;;;;;;;;;4985608;23;20054;-58
2022/08/07 02:59:25;;;;;;;2.35;1.15;;;;;;;;;;4992420;28;20058;-59
2022/08/07 03:01:53;;;;;;;3.15;1.15;;;;;;;;;;5000176;28;20053;-61
2022/08/07 03:04:25;;;;;;;3.85;1.35;;;;;;;;;;5004916;28;20144;-61
2022/08/07 03:06:52;;;;;;;2.72;1.35;;;;;;;;;;4995613;28;20140;-61
2022/08/07 03:09:20;;;;;;;1.42;0.90;;;;;;;;;;5005398;28;20140;-62
2022/08/07 03:11:47;;;;;;;2.72;1.33;;;;;;;;;;5011171;28;20057;-61
2022/08/07 03:14:15;;;;;;;4.18;1.42;;;;;;;;;;5008543;28;20061;-61
2022/08/07 03:16:42;;;;;;;2.13;1.23;;;;;;;;;;4999418;28;20069;-61
2022/08/07 03:19:09;;;;;;;2.13;1.20;;;;;;;;;;5010481;28;20046;-61
2022/08/07 03:21:37;;;;;;;2.28;1.30;;;;;;;;;;5021137;28;20061;-61
2022/08/07 03:24:05;;;;;;;3.83;1.50;;;;;;;;;;5035280;28;20084;-61
2022/08/07 03:26:32;;;;;;;3.33;1.30;;;;;;;;;;5025390;28;20081;-62
2022/08/07 03:29:01;;;;;;;2.78;1.20;;;;;;;;;;5003536;28;20057;-61
2022/08/07 03:31:27;;;;;;;2.42;1.25;;;;;;;;;;5010985;28;20067;-60
2022/08/07 03:33:55;;;;;;;3.80;1.40;;;;;;;;;;4999469;28;20048;-61
2022/08/07 03:36:24;;;;;;;3.28;1.50;;;;;;;;;;5025590;28;20158;-62
2022/08/07 03:38:53;;;;;;;2.40;1.20;;;;;;;;;;5001928;28;20053;-61
2022/08/07 03:41:20;;;;;;;3.70;1.40;;;;;;;;;;5009058;28;20137;-61
2022/08/07 03:43:47;;;;;;;2.53;1.30;;;;;;;;;;5010812;28;20054;-62
2022/08/07 03:46:14;;;;;;;2.67;1.20;;;;;;;;;;5002227;28;20061;-61
2022/08/07 03:48:41;;;;;;;2.55;1.45;;;;;;;;;;5010446;28;20064;-61
2022/08/07 03:51:08;;;;;;;2.00;1.27;;;;;;;;;;5017125;28;20053;-61
2022/08/07 03:53:37;;;;;;;4.75;1.40;;;;;;;;;;5010871;28;20107;-61
2022/08/07 03:56:05;;;;;;;2.35;1.25;;;;;;;;;;5001827;28;20062;-60
2022/08/07 03:58:32;;;;;;;3.00;1.40;;;;;;;;;;5010159;28;20057;-60
2022/08/07 04:01:14;;;;;;;2.20;1.27;;;;;;;;;;5005597;28;20053;-60
2022/08/07 04:03:42;;;;;;;2.55;1.25;;;;;;;;;;5001252;28;20162;-62
2022/08/07 04:06:09;;;;;;;6.93;1.50;;;;;;;;;;5010866;28;20057;-61
2022/08/07 04:08:36;;;;;;;3.10;1.40;;;;;;;;;;5006501;28;20053;-61
2022/08/07 04:11:03;;;;;;;3.58;1.40;;;;;;;;;;5010157;28;20077;-61
2022/08/07 04:13:31;;;;;;;2.30;1.30;;;;;;;;;;5004101;28;20076;-61
2022/08/07 04:15:58;;;;;;;3.22;1.38;;;;;;;;;;5027792;28;20057;-61
2022/08/07 04:18:24;;;;;;;3.25;1.60;;;;;;;;;;5003995;28;20053;-61
2022/08/07 04:20:51;;;;;;;3.03;1.50;;;;;;;;;;5010221;28;20080;-62
2022/08/07 04:23:20;;;;;;;2.72;1.60;;;;;;;;;;5009230;28;20139;-61
2022/08/07 04:25:47;;;;;;;3.63;1.67;;;;;;;;;;5041215;28;20053;-61
2022/08/07 04:28:14;;;;;;;2.67;1.30;;;;;;;;;;5026711;28;20049;-61
2022/08/07 04:30:42;;;;;;;2.55;1.50;;;;;;;;;;5002892;28;20038;-62
2022/08/07 04:33:09;;;;;;;2.90;1.60;;;;;;;;;;5026767;28;20046;-61
2022/08/07 04:35:37;;;;;;;2.72;1.48;;;;;;;;;;4995718;28;20041;-62
2022/08/07 04:38:07;;;;;;;3.20;1.60;;;;;;;;;;5010780;28;20041;-62
2022/08/07 04:40:33;;;;;;;3.72;1.67;;;;;;;;;;5022930;28;20054;-61
2022/08/07 04:43:00;;;;;;;3.38;1.50;;;;;;;;;;5027072;28;20061;-61
2022/08/07 04:45:29;;;;;;;2.60;1.45;;;;;;;;;;5010554;28;20069;-61
2022/08/07 04:48:02;;;;;;;4.70;1.45;;;;;;;;;;5021886;28;20073;-62
2022/08/07 04:50:32;;;;;;;2.83;1.35;;;;;;;;;;5008735;28;20053;-61
2022/08/07 04:53:04;;;;;;;2.17;1.50;;;;;;;;;;5005535;28;20082;-62
2022/08/07 04:55:33;;;;;;;4.05;1.95;;;;;;;;;;5014778;28;20103;-61
2022/08/07 04:58:02;;;;;;;5.28;2.78;;;;;;;;;;5029438;28;20080;-62
2022/08/07 05:00:35;;;;;;;3.83;2.08;;;;;;;;;;5051971;28;20107;-61
2022/08/07 05:03:05;;;;;;;3.85;1.83;;;;;;;;;;5042112;28;20140;-62
2022/08/07 05:05:35;;;;;;;4.78;1.67;;;;;;;;;;5031011;28;20053;-61
2022/08/07 05:08:03;;;;;;;3.65;1.65;;;;;;;;;;5028379;28;20053;-61
2022/08/07 05:10:33;;;;;;;3.83;1.70;;;;;;;;;;5028619;28;20057;-61
2022/08/07 05:13:03;;;;;;;3.47;1.70;;;;;;;;;;5030159;28;20153;-61
2022/08/07 05:15:34;;;;;;;3.45;1.60;;;;;;;;;;5028585;28;20072;-62
2022/08/07 05:18:04;;;;;;;3.28;1.65;;;;;;;;;;5029092;28;20127;-61
2022/08/07 05:20:32;;;;;;;4.13;1.73;;;;;;;;;;5024032;28;20056;-61
2022/08/07 05:23:00;;;;;;;3.67;1.83;;;;;;;;;;5047233;28;20063;-61
2022/08/07 05:25:27;;;;;;;;;;;;;;;;;;5024946;28;20060;-61
2022/08/07 05:27:54;;;;;;;6.40;2.00;;;;;;;;;;5030014;28;19920;-62
2022/08/07 05:30:21;;;;;;;4.05;1.58;;;;;;;;;;5024252;28;20055;-61
2022/08/07 05:32:49;;;;;;;3.63;1.65;;;;;;;;;;5030737;28;20058;-62
2022/08/07 05:35:20;;;;;;;2.45;1.45;;;;;;;;;;5024784;28;20119;-61
2022/08/07 05:37:47;;;;;;;2.78;1.42;;;;;;;;;;5028708;28;20053;-61
2022/08/07 05:40:16;;;;;;;5.15;1.50;;;;;;;;;;5024264;28;20053;-61
2022/08/07 05:42:43;;;;;;;3.78;1.60;;;;;;;;;;5046196;28;20046;-62
2022/08/07 05:45:11;;;;;;;5.03;1.92;;;;;;;;;;5014294;28;20046;-61
2022/08/07 05:47:38;;;;;;;3.60;1.88;;;;;;;;;;5042947;28;20049;-62
2022/08/07 05:50:07;;;;;;;4.30;1.77;;;;;;;;;;5028753;28;20053;-62
2022/08/07 05:52:35;;;;;;;7.03;1.90;;;;;;;;;;5017032;28;20103;-62
2022/08/07 05:55:03;;;;;;;2.90;1.70;;;;;;;;;;5029786;28;20063;-61
2022/08/07 05:57:30;;;;;;;4.07;1.55;;;;;;;;;;5032764;28;20056;-61
2022/08/07 05:59:58;;;;;;;3.65;1.70;;;;;;;;;;5048896;28;20065;-61
2022/08/07 06:02:26;;;;;;;3.35;1.73;;;;;;;;;;5030176;28;20281;-61
2022/08/07 06:04:53;;;;;;;;;;;;;;;;;;5029634;28;20059;-60
2022/08/07 06:07:20;;;;;;;2.78;1.55;;;;;;;;;;5023333;28;19929;-61
2022/08/07 06:09:48;;;;;;;5.70;1.70;;;;;;;;;;5043923;28;20045;-61
2022/08/07 06:12:15;;;;;;;4.60;1.95;;;;;;;;;;5039944;28;20098;-61
2022/08/07 06:14:42;;;;;;;5.57;2.17;;;;;;;;;;5027346;28;20048;-61
2022/08/07 06:17:12;;;;;;;8.38;3.03;;;;;;;;;;5022972;28;20092;-61
2022/08/07 06:19:40;;;;;;;4.72;2.20;;;;;;;;;;5027889;28;20143;-61
2022/08/07 06:22:07;;;;;;;4.00;1.85;;;;;;;;;;5021446;28;20052;-62
2022/08/07 06:24:35;;;;;;;13.95;3.97;;;;;;;;;;5029629;28;20050;-61
2022/08/07 06:27:03;;;;;;;9.45;3.55;;;;;;;;;;5023693;28;20115;-61
2022/08/07 06:29:30;;;;;;;3.95;2.00;;;;;;;;;;5044737;28;20053;-62
2022/08/07 06:31:56;;;;;;;4.18;2.08;;;;;;;;;;5043782;28;20063;-61
2022/08/07 06:34:24;;;;;;;6.15;2.83;;;;;;;;;;5024360;28;20156;-62
2022/08/07 06:36:50;;;;;;;3.90;1.92;;;;;;;;;;5027634;28;20092;-61
2022/08/07 06:39:17;;;;;;;4.70;2.15;;;;;;;;;;5022898;28;20057;-62
2022/08/07 06:41:46;;;;;;;8.82;3.83;;;;;;;;;;5028815;28;20061;-61
2022/08/07 06:44:14;;;;;;;6.43;2.67;;;;;;;;;;5022160;28;20065;-61
2022/08/07 06:46:41;;;;;;;8.15;3.40;;;;;;;;;;5029072;28;20132;-61
2022/08/07 06:49:08;;;;;;;5.78;2.65;;;;;;;;;;5010411;28;20111;-61
2022/08/07 06:51:35;;;;;;;6.82;3.30;;;;;;;;;;5008428;28;20053;-62
2022/08/07 06:54:04;;;;;;;11.27;4.38;;;;;;;;;;5013419;28;20140;-62
2022/08/07 06:56:42;;;;;;;5.35;2.25;;;;;;;;;;5027902;28;20058;-62
2022/08/07 06:59:11;;;;;;;3.75;2.13;;;;;;;;;;5012334;28;20082;-61
2022/08/07 07:01:41;;;;;;;7.80;4.07;;;;;;;;;;4999014;28;20137;-61
2022/08/07 07:04:08;;;;;;;4.72;2.40;;;;;;;;;;5006222;28;20099;-61
2022/08/07 07:06:35;;;;;;;4.47;2.35;;;;;;;;;;5011898;28;20058;-61
2022/08/07 07:09:18;;;;;;;5.15;2.30;;;;;;;;;;5002159;28;20046;-66
2022/08/07 07:11:49;;;;;;;4.28;2.05;;;;;;;;;;4992438;28;20057;-60
2022/08/07 07:14:18;;;;;;;7.25;3.33;;;;;;;;;;4991856;28;20064;-62
2022/08/07 07:16:46;;;;;;;5.93;3.10;;;;;;;;;;5010595;28;20053;-62
2022/08/07 07:19:15;;;;;;;5.72;2.67;;;;;;;;;;5005026;28;20127;-61
2022/08/07 07:21:41;;;;;;;;;;;;;;;;;;5011635;28;20052;-60
2022/08/07 07:24:09;;;;;;;6.35;2.60;;;;;;;;;;5038711;28;19948;-62
2022/08/07 07:26:37;;;;;;;4.32;2.20;;;;;;;;;;5012043;28;20057;-61
2022/08/07 07:29:05;;;;;;;4.60;2.15;;;;;;;;;;5012485;28;20061;-61
2022/08/07 07:31:33;;;;;;;4.25;1.92;;;;;;;;;;5022011;28;20045;-61
2022/08/07 07:34:04;;;;;;;4.75;2.30;;;;;;;;;;5006812;28;20076;-62
2022/08/07 07:36:32;;;;;;;7.15;3.08;;;;;;;;;;5021801;28;20061;-61
2022/08/07 07:39:00;;;;;;;5.10;2.45;;;;;;;;;;5027428;28;20060;-62
2022/08/07 07:41:27;;;;;;;3.53;1.98;;;;;;;;;;5003200;28;20056;-61
2022/08/07 07:43:53;;;;;;;5.07;2.47;;;;;;;;;;5029194;28;20057;-60
2022/08/07 07:46:22;;;;;;;3.83;1.90;;;;;;;;;;5025819;28;20053;-60
2022/08/07 07:48:50;;;;;;;4.57;2.03;;;;;;;;;;5027269;28;20056;-62
2022/08/07 07:51:17;;;;;;;;;;;;;;;;;;4993649;28;20045;-62
2022/08/07 07:53:46;;;;;;;5.97;2.13;;;;;;;;;;4994802;28;20052;-62
2022/08/07 07:56:13;;;;;;;4.13;2.03;;;;;;;;;;5005133;28;20060;-61
2022/08/07 07:58:40;;;;;;;6.53;2.65;;;;;;;;;;5009753;28;20053;-62
2022/08/07 08:01:07;;;;;;;6.30;2.58;;;;;;;;;;5003511;28;20041;-61
2022/08/07 08:03:37;;;;;;;5.57;2.10;;;;;;;;;;5008033;28;20137;-61
2022/08/07 08:06:04;;;;;;;8.70;3.08;;;;;;;;;;4991925;28;20057;-60
2022/08/07 08:08:32;;;;;;;4.75;2.35;;;;;;;;;;5024966;28;20085;-61
2022/08/07 08:11:01;;;;;;;10.00;3.13;;;;;;;;;;5006060;28;20099;-61
2022/08/07 08:13:29;;;;;;;7.70;3.42;;;;;;;;;;5006296;28;20135;-61
2022/08/07 08:15:57;;;;;;;7.05;3.08;;;;;;;;;;5007898;28;20063;-61
2022/08/07 08:18:24;;;;;;;9.88;2.20;;;;;;;;;;5001509;28;20053;-61
2022/08/07 08:20:51;;;;;;;6.93;2.35;;;;;;;;;;5009705;28;20068;-61
2022/08/07 08:28:50;;;;;;;5.32;2.65;;;;;;;;;;5030621;28;20060;-61
2022/08/07 08:31:20;;;;;;;4.82;2.45;;;;;;;;;;5010000;28;20051;-62
2022/08/07 08:33:47;;;;;;;5.78;2.30;;;;;;;;;;4999497;28;20105;-61
2022/08/07 08:36:15;;;;;;;5.25;2.53;;;;;;;;;;5009556;28;20060;-61
2022/08/07 08:38:43;;;;;;;8.05;3.00;;;;;;;;;;5009556;28;20085;-62
2022/08/07 08:41:14;;;;;;;8.15;2.90;;;;;;;;;;5001068;28;20053;-61
2022/08/07 08:43:46;;;;;;;5.88;2.80;;;;;;;;;;5010467;28;20045;-62
2022/08/07 08:46:16;;;;;;;6.35;2.78;;;;;;;;;;5000774;28;20068;-61
2022/08/07 08:48:45;;;;;;;5.50;2.30;;;;;;;;;;5007262;28;20053;-62
2022/08/07 08:51:16;;;;;;;5.57;2.20;;;;;;;;;;5027707;28;20049;-61
2022/08/07 08:53:47;;;;;;;4.70;2.40;;;;;;;;;;5008910;28;20053;-62
2022/08/07 08:56:18;;;;;;;6.32;2.50;;;;;;;;;;5001251;28;20065;-61
2022/08/07 08:58:49;;;;;;;4.55;2.38;;;;;;;;;;5009280;28;20156;-60
2022/08/07 09:01:20;;;;;;;4.50;2.20;;;;;;;;;;5009639;28;20057;-62
2022/08/07 09:03:53;;;;;;;5.85;1.95;;;;;;;;;;5031140;28;20064;-60
2022/08/07 09:06:29;;;;;;;4.22;2.15;;;;;;;;;;5008309;28;20045;-60
2022/08/07 09:09:00;;;;;;;4.85;1.90;;;;;;;;;;5018520;28;20052;-61
2022/08/07 09:11:34;;;;;;;5.60;2.15;;;;;;;;;;5008186;28;20057;-61
2022/08/07 09:14:09;;;;;;;4.75;2.20;;;;;;;;;;5000288;28;20073;-61
2022/08/07 09:16:41;;;;;;;4.55;1.95;;;;;;;;;;5008975;28;20061;-61
2022/08/07 09:19:17;;;;;;;4.38;2.17;;;;;;;;;;5000093;28;20057;-61
2022/08/07 09:21:49;;;;;;;5.95;2.58;;;;;;;;;;5009072;28;20088;-61
2022/08/07 09:24:17;;;;;;;6.50;2.50;;;;;;;;;;5034372;28;20056;-61
2022/08/07 09:26:51;;;;;;;6.78;2.55;;;;;;;;;;5008900;28;20057;-61
2022/08/07 09:29:21;;;;;;;7.18;2.38;;;;;;;;;;5031078;28;20053;-60
2022/08/07 09:31:54;;;;;;;4.78;2.25;;;;;;;;;;5022474;28;20061;-61
2022/08/07 09:34:24;;;;;;;8.38;2.67;;;;;;;;;;5003091;28;20056;-60
2022/08/07 09:36:57;;;;;;;5.03;2.40;;;;;;;;;;5008602;28;20123;-61
2022/08/07 09:39:27;;;;;;;6.57;2.75;;;;;;;;;;5006081;28;20057;-61
2022/08/07 09:42:01;;;;;;;5.97;2.38;;;;;;;;;;5013240;28;20056;-61
2022/08/07 09:44:35;;;;;;;4.68;2.10;;;;;;;;;;5015270;28;20042;-60
2022/08/07 09:47:07;;;;;;;5.97;2.30;;;;;;;;;;5028561;28;20220;-61
2022/08/07 09:49:48;;;;;;;5.00;2.20;;;;;;;;;;5013393;28;20057;-60
2022/08/07 09:52:20;;;;;;;4.72;1.90;;;;;;;;;;4994895;28;20050;-60
2022/08/07 09:54:48;;;;;;;4.03;1.90;;;;;;;;;;5013639;28;20072;-61
2022/08/07 09:57:33;;;;;;;4.03;2.03;;;;;;;;;;5015753;28;20057;-61
2022/08/07 10:00:10;;;;;;;3.22;1.60;;;;;;;;;;5015640;28;20116;-60
2022/08/07 10:02:51;;;;;;;2.88;1.52;;;;;;;;;;5010974;28;20080;-61
2022/08/07 10:05:29;;;;;;;2.95;1.80;;;;;;;;;;5022943;28;20057;-61
2022/08/07 10:08:02;;;;;;;2.90;1.60;;;;;;;;;;5010483;28;20061;-61
2022/08/07 10:10:33;;;;;;;2.60;1.42;;;;;;;;;;5011542;28;20049;-61
2022/08/07 10:13:13;;;;;;;4.53;2.05;;;;;;;;;;5011871;28;20045;-61
2022/08/07 10:16:00;;;;;;;3.38;1.77;;;;;;;;;;5031596;28;20049;-61
2022/08/07 10:18:36;;;;;;;3.22;1.55;;;;;;;;;;5021249;28;20131;-62
2022/08/07 10:21:10;;;;;;;3.90;1.58;;;;;;;;;;5032069;28;20053;-60
2022/08/07 10:23:43;;;;;;;5.47;1.35;;;;;;;;;;5003143;28;20063;-61
2022/08/07 10:26:16;;;;;;;3.90;1.58;;;;;;;;;;5011396;28;20080;-60
2022/08/07 10:28:54;;;;;;;5.07;1.95;;;;;;;;;;5024845;28;20061;-60
2022/08/07 10:31:33;;;;;;;6.07;1.90;;;;;;;;;;5033173;28;20076;-60
2022/08/07 10:34:08;;;;;;;3.53;1.88;;;;;;;;;;5022868;28;20066;-61
2022/08/07 10:36:41;;;;;;;4.55;2.05;;;;;;;;;;5017635;28;20045;-61
2022/08/07 10:39:12;;;;;;;3.13;1.80;;;;;;;;;;5009738;28;20048;-60
2022/08/07 10:41:41;;;;;;;4.45;1.58;;;;;;;;;;5027871;28;20128;-60
2022/08/07 10:44:16;;;;;;;4.97;1.60;;;;;;;;;;5025725;28;20049;-59
2022/08/07 10:46:45;;;;;;;2.92;1.58;;;;;;;;;;5008117;28;20069;-61
2022/08/07 10:49:15;;;;;;;3.58;1.80;;;;;;;;;;5030324;28;20117;-60
2022/08/07 10:51:48;;;;;;;3.95;1.80;;;;;;;;;;5027394;28;20053;-60
2022/08/07 10:54:23;;;;;;;7.20;1.83;;;;;;;;;;5031879;28;20053;-61
2022/08/07 10:56:55;;;;;;;4.30;2.10;;;;;;;;;;5025378;28;20068;-60
2022/08/07 10:59:27;;;;;;;3.53;1.67;;;;;;;;;;5029901;28;20169;-61
2022/08/07 11:01:55;;;;;;;3.45;1.60;;;;;;;;;;5034460;28;20136;-61
2022/08/07 11:04:35;;;;;;;4.55;1.92;;;;;;;;;;5039430;28;20053;-60
2022/08/07 11:07:05;;;;;;;2.95;1.65;;;;;;;;;;5020013;28;20122;-60
2022/08/07 11:09:43;;;;;;;4.05;1.75;;;;;;;;;;5063102;28;20136;-59
2022/08/07 11:12:13;;;;;;;5.28;1.80;;;;;;;;;;5032465;28;20063;-59
2022/08/07 11:14:43;;;;;;;4.25;1.60;;;;;;;;;;5034407;28;20118;-59
2022/08/07 11:17:12;;;;;;;4.45;1.60;;;;;;;;;;5033837;28;20056;-60
2022/08/07 11:19:46;;;;;;;3.60;1.63;;;;;;;;;;5025220;28;20061;-59
2022/08/07 11:22:18;;;;;;;3.75;1.50;;;;;;;;;;5032946;28;20049;-59
2022/08/07 11:24:51;;;;;;;6.68;2.10;;;;;;;;;;5022707;28;20057;-59
2022/08/07 11:27:21;;;;;;;4.13;1.75;;;;;;;;;;5032591;28;20044;-59
2022/08/07 11:29:52;;;;;;;4.03;1.92;;;;;;;;;;5044874;28;20098;-60
2022/08/07 11:32:22;;;;;;;4.05;1.55;;;;;;;;;;5030154;28;20075;-59
2022/08/07 11:34:56;;;;;;;2.65;1.40;;;;;;;;;;5023533;28;20111;-58
2022/08/07 11:37:32;;;;;;;3.47;1.60;;;;;;;;;;5036675;28;20157;-59
2022/08/07 11:40:04;;;;;;;3.00;1.58;;;;;;;;;;5032650;28;20148;-59
2022/08/07 11:42:38;;;;;;;4.57;1.50;;;;;;;;;;5042157;28;20049;-59
2022/08/07 11:45:15;;;;;;;3.20;1.50;;;;;;;;;;5029880;28;20063;-60
2022/08/07 11:47:54;;;;;;;3.28;1.40;;;;;;;;;;5026509;28;20044;-59
2022/08/07 11:50:33;;;;;;;2.78;1.58;;;;;;;;;;5037170;28;20060;-59
2022/08/07 11:53:07;;;;;;;2.33;1.23;;;;;;;;;;5022115;28;20087;-60
2022/08/07 11:55:47;;;;;;;2.88;1.38;;;;;;;;;;5039889;28;20037;-60
2022/08/07 11:58:17;;;;;;;4.95;1.40;;;;;;;;;;5026272;28;20061;-59
2022/08/07 12:00:56;;;;;;;2.40;1.30;;;;;;;;;;5034557;28;20114;-60
2022/08/07 12:03:36;;;;;;;1.88;1.23;;;;;;;;;;5024802;28;20068;-60
2022/08/07 12:06:12;;;;;;;2.65;1.45;;;;;;;;;;5033783;28;20076;-59
2022/08/07 12:08:44;;;;;;;3.00;1.30;;;;;;;;;;5042652;28;20056;-60
2022/08/07 12:11:15;;;;;;;2.35;1.05;;;;;;;;;;5034429;28;20060;-60
2022/08/07 12:13:47;;;;;;;1.70;1.10;;;;;;;;;;5029462;28;20103;-60
2022/08/07 12:16:16;;;;;;;2.72;1.40;;;;;;;;;;5024753;28;20048;-59
2022/08/07 12:18:42;;;;;;;;;;;;;;;;;;5030515;28;20077;-59
2022/08/07 12:21:19;;;;;;;2.85;1.30;;;;;;;;;;5039445;28;19986;-59
2022/08/07 12:23:52;;;;;;;3.65;1.23;;;;;;;;;;5030969;28;20064;-60
2022/08/07 12:26:23;;;;;;;2.25;1.20;;;;;;;;;;5026473;28;20103;-59
2022/08/07 12:28:52;;;;;;;1.92;1.15;;;;;;;;;;5035589;28;20057;-59
2022/08/07 12:31:31;;;;;;;1.98;1.17;;;;;;;;;;5022253;28;20045;-59
2022/08/07 12:33:59;;;;;;;2.05;1.10;;;;;;;;;;5027971;28;20045;-58
2022/08/07 12:36:27;;;;;;;3.72;1.10;;;;;;;;;;5036989;28;20048;-58
2022/08/07 12:38:55;;;;;;;2.50;1.02;;;;;;;;;;5031968;28;20131;-59
2022/08/07 12:41:24;;;;;;;3.70;1.05;;;;;;;;;;5026168;28;20129;-58
2022/08/07 12:43:52;;;;;;;3.13;1.25;;;;;;;;;;5035058;28;20098;-59
2022/08/07 12:46:26;;;;;;;1.48;1.10;;;;;;;;;;5027178;28;20051;-58
2022/08/07 12:48:56;;;;;;;3.80;1.05;;;;;;;;;;5022160;28;20057;-58
2022/08/07 12:51:24;;;;;;;5.22;1.08;;;;;;;;;;5038391;28;20072;-61
2022/08/07 12:53:55;;;;;;;1.67;1.15;;;;;;;;;;5052533;28;20067;-58
2022/08/07 12:56:25;;;;;;;3.45;1.20;;;;;;;;;;5043934;28;20057;-60
2022/08/07 12:58:52;;;;;;;2.95;1.25;;;;;;;;;;5009460;28;20053;-59
2022/08/07 13:01:26;;;;;;;2.03;1.20;;;;;;;;;;5007248;28;20057;-59
2022/08/07 13:03:58;;;;;;;3.45;1.20;;;;;;;;;;5012373;28;20103;-59
2022/08/07 13:06:29;;;;;;;1.75;1.10;;;;;;;;;;4997961;28;20061;-59
2022/08/07 13:09:02;;;;;;;2.85;1.20;;;;;;;;;;5033246;28;20107;-58
2022/08/07 13:11:35;;;;;;;3.63;1.10;;;;;;;;;;5006621;28;20049;-57
2022/08/07 13:14:07;;;;;;;6.90;1.30;;;;;;;;;;5029705;28;20061;-60
2022/08/07 13:16:37;;;;;;;2.20;1.08;;;;;;;;;;5011040;28;20091;-60
2022/08/07 13:19:11;;;;;;;5.28;1.27;;;;;;;;;;5021518;28;20096;-58
2022/08/07 13:21:43;;;;;;;2.05;1.08;;;;;;;;;;5028735;28;20068;-57
2022/08/07 13:24:18;;;;;;;5.90;1.13;;;;;;;;;;5001433;28;20137;-58
2022/08/07 13:26:49;;;;;;;1.88;1.00;;;;;;;;;;5011842;28;20041;-59
2022/08/07 13:29:17;;;;;;;1.27;0.98;;;;;;;;;;4993236;28;20160;-58
2022/08/07 13:31:48;;;;;;;6.30;1.40;;;;;;;;;;5008788;28;20057;-60
2022/08/07 13:34:21;;;;;;;2.95;1.20;;;;;;;;;;5009787;28;20049;-58
2022/08/07 13:36:51;;;;;;;7.35;1.20;;;;;;;;;;5002472;28;20073;-59
2022/08/07 13:39:23;;;;;;;1.48;1.02;;;;;;;;;;5040311;28;20119;-58
2022/08/07 13:41:52;;;;;;;3.33;1.30;;;;;;;;;;5002236;28;20046;-60
2022/08/07 13:44:26;;;;;;;8.48;3.88;;;;;;;;;;5041471;28;20060;-59
2022/08/07 13:46:56;;;;;;;2.17;1.30;;;;;;;;;;5033526;28;20061;-58
2022/08/07 13:49:23;;;;;;;2.50;1.10;;;;;;;;;;5017018;28;20045;-58
2022/08/07 13:51:52;;;;;;;4.13;1.00;;;;;;;;;;5008980;28;20057;-59
2022/08/07 13:54:21;;;;;;;2.33;1.10;;;;;;;;;;5013846;28;20308;-58
2022/08/07 13:56:48;;;;;;;2.08;0.98;;;;;;;;;;5034829;28;20081;-60
2022/08/07 13:59:19;;;;;;;3.72;1.15;;;;;;;;;;5024237;28;20063;-60
2022/08/07 14:01:49;;;;;;;3.17;0.93;;;;;;;;;;5045541;28;20053;-59
2022/08/07 14:04:16;;;;;;;1.27;0.93;;;;;;;;;;5032292;28;20084;-59
2022/08/07 14:06:44;;;;;;;2.25;1.05;;;;;;;;;;5060524;28;20044;-60
2022/08/07 14:09:17;;;;;;;2.25;0.95;;;;;;;;;;5026346;28;20064;-61
2022/08/07 14:11:47;;;;;;;2.92;1.08;;;;;;;;;;5034458;28;20060;-58
2022/08/07 14:14:20;;;;;;;6.30;1.83;;;;;;;;;;5025318;28;20059;-60
2022/08/07 14:16:47;;;;;;;1.45;1.00;;;;;;;;;;5047450;28;20105;-61
2022/08/07 14:19:16;;;;;;;1.92;1.10;;;;;;;;;;5035346;28;20084;-59
2022/08/07 14:21:44;;;;;;;3.75;1.20;;;;;;;;;;5024747;28;20051;-60
2022/08/07 14:24:13;;;;;;;2.25;1.15;;;;;;;;;;5029965;28;20053;-60
2022/08/07 14:26:41;;;;;;;2.35;1.20;;;;;;;;;;5028322;28;20049;-60
2022/08/07 14:29:11;;;;;;;1.67;1.00;;;;;;;;;;5034341;28;20142;-60
2022/08/07 14:31:38;;;;;;;2.30;1.00;;;;;;;;;;5026992;28;20150;-60
2022/08/07 14:34:05;;;;;;;1.58;0.93;;;;;;;;;;5037407;28;20048;-61
2022/08/07 14:36:33;;;;;;;1.75;1.00;;;;;;;;;;5026616;28;20064;-60
2022/08/07 14:39:01;;;;;;;1.35;1.00;;;;;;;;;;5026509;28;20085;-59
2022/08/07 14:41:31;;;;;;;1.58;1.10;;;;;;;;;;5036512;28;20048;-57
2022/08/07 14:43:58;;;;;;;2.60;0.98;;;;;;;;;;5024373;28;20061;-58
2022/08/07 14:46:31;;;;;;;2.92;1.65;;;;;;;;;;5037089;28;20055;-59
2022/08/07 14:48:58;;;;;;;2.90;1.20;;;;;;;;;;5028314;28;20090;-59
2022/08/07 14:51:27;;;;;;;1.90;1.10;;;;;;;;;;5031611;28;20044;-58
2022/08/07 14:53:55;;;;;;;1.42;0.93;;;;;;;;;;5024405;28;20163;-58
2022/08/07 14:56:21;;;;;;;;;;;;;;;;;;5038175;28;20072;-59
2022/08/07 14:58:49;;;;;;;3.47;1.55;;;;;;;;;;5010953;28;19964;-59
2022/08/07 15:01:18;;;;;;;3.67;1.30;;;;;;;;;;5004470;28;20085;-58
2022/08/07 15:03:47;;;;;;;3.10;1.70;;;;;;;;;;5017670;28;20053;-61
2022/08/07 15:06:14;;;;;;;6.15;2.03;;;;;;;;;;5010386;28;20056;-59